Edgewood Park, New York
Current Conditions -  °F | °C
As of 8:38 AM on Friday 19 Dec 2014 (Local Time) from KGTB Reporting Station
Overcast Overcast  
Wind Chill: 21°   Ceiling: 900
Heat Index: 21°   Visibility: 10mi
Dew Point: 18°   Wind: 3mph
Humidity: 86%   Direction: 330°NNW
Pressure: 30.09"   Gusts: NA
Location:  44.3057°N, 75.9374°W
Report Text: KGTB 191338Z AUTO 33003KT 10SM OVC009 M06/M08 A3009 RMK AO2
Loading
Personal Weather Stations






























Interactive Weather Map New forecast layout! Learn more

10-Day Weather Forecast

Advertisements
Track Severe Weather on mobile